Главная страница
METAR-TAF:

METAR-TAF

Аэропорты :

Port Meadville Airport

Meadville, Пенсильвания, США

широта: 41-37-35N, долгота: 080-12-53W, высота над уровнем моря: 427 м

Текущие метеонаблюдения

Эта сводка был подготовлена 42 минут назад, в 15:53 UTC
Ветер 7 Узел от западный-юго-западный
Температура -1°C
Влажность 80%
Давление 1025 hPa
Видимость: 16.1 км
Сплошная облачность на высоте 1200 фута

METAR: KGKJ 151553Z AUTO 25007KT 10SM OVC012 M01/M04 A3026 RMK AO2 SLP262 T10111044 TSNO

Время: 11:35 (16:35 UTC)


TAF: отсутствует

Метеонаблюдения и прогнозы для более 4000 аэропортов (сводки METAR и TAF).

Имеющиеся станции представлены на карте желтыми и красными точками.

Чтобы увидеть название станции, наведите на нее мышь.

Затем щелкните, чтобы увидеть метеонаблюдения и метеопрогнозы.

Управление картой: чтобы увеличить масштаб, щелкните зеленые кнопки с черным крестиком; чтобы уменьшить масштаб, щелкните зеленую кнопку с тире; для просмотра соседних карт щелкайте зеленые стрелки.


METAR-TAF: